createdAt,value
2018-06-18T00:01:22.369Z,16.66
2018-06-18T00:03:52.057Z,16.52
2018-06-18T00:06:21.399Z,16.52
2018-06-18T00:08:51.037Z,16.56
2018-06-18T00:11:20.675Z,16.55
2018-06-18T00:13:50.363Z,16.57
2018-06-18T00:16:20.000Z,16.46
2018-06-18T00:18:49.725Z,16.57
2018-06-18T00:21:19.282Z,16.69
2018-06-18T00:23:48.921Z,16.67
2018-06-18T00:26:18.598Z,16.51
2018-06-18T00:28:48.217Z,16.38
2018-06-18T00:31:17.834Z,16.43
2018-06-18T00:33:47.477Z,16.47
2018-06-18T00:36:17.143Z,16.51
2018-06-18T00:38:46.780Z,16.51
2018-06-18T00:41:16.429Z,16.50
2018-06-18T00:43:45.734Z,16.52
2018-06-18T00:46:15.397Z,16.46
2018-06-18T00:48:45.025Z,16.44
2018-06-18T00:51:14.648Z,16.46
2018-06-18T00:53:44.315Z,16.43
2018-06-18T00:56:16.267Z,16.59
2018-06-18T00:58:45.957Z,16.50
2018-06-18T01:01:15.440Z,16.42
2018-06-18T01:03:45.145Z,16.57
2018-06-18T01:06:14.961Z,16.58
2018-06-18T01:08:44.297Z,16.64
2018-06-18T01:11:13.913Z,16.52
2018-06-18T01:13:43.536Z,16.53
2018-06-18T01:16:12.859Z,16.63
2018-06-18T01:18:42.522Z,16.57
2018-06-18T01:21:12.170Z,16.62
2018-06-18T01:23:54.408Z,16.55
2018-06-18T01:26:24.169Z,16.50
2018-06-18T01:28:53.572Z,16.49
2018-06-18T01:31:22.848Z,16.55
2018-06-18T01:33:55.665Z,16.55
2018-06-18T01:36:24.961Z,16.69
2018-06-18T01:38:54.619Z,16.60
2018-06-18T01:41:24.274Z,16.56
2018-06-18T01:43:53.928Z,16.64
2018-06-18T01:46:23.670Z,16.70
2018-06-18T01:48:53.667Z,16.72
2018-06-18T01:51:23.385Z,16.69
2018-06-18T01:53:53.014Z,16.68
2018-06-18T01:56:22.619Z,16.68
2018-06-18T01:58:52.265Z,16.80
2018-06-18T02:01:21.961Z,16.84
2018-06-18T02:03:51.620Z,16.95
2018-06-18T02:06:21.355Z,16.87
2018-06-18T02:08:50.982Z,16.83
2018-06-18T02:11:20.621Z,16.87
2018-06-18T02:13:50.316Z,16.87
2018-06-18T02:16:19.962Z,16.86
2018-06-18T02:18:49.678Z,16.83
2018-06-18T02:21:18.960Z,16.78
2018-06-18T02:23:48.578Z,16.89
2018-06-18T02:26:18.226Z,16.99
2018-06-18T02:28:53.047Z,16.87
2018-06-18T02:31:27.955Z,16.84
2018-06-18T02:34:02.666Z,16.79
2018-06-18T02:36:37.526Z,16.87
2018-06-18T02:39:12.807Z,16.96
2018-06-18T02:41:43.509Z,16.90
2018-06-18T02:44:13.169Z,16.84
2018-06-18T02:46:43.013Z,16.76
2018-06-18T02:49:12.645Z,16.79
2018-06-18T02:51:42.392Z,16.77
2018-06-18T02:54:12.083Z,16.86
2018-06-18T02:56:48.776Z,16.87
2018-06-18T02:59:18.692Z,16.92
2018-06-18T03:01:48.631Z,17.00
2018-06-18T03:04:18.267Z,16.85
2018-06-18T03:06:47.974Z,16.90
2018-06-18T03:09:17.334Z,16.81
2018-06-18T03:11:46.924Z,16.86
2018-06-18T03:14:16.301Z,16.78
2018-06-18T03:16:46.005Z,16.93
2018-06-18T03:19:20.869Z,16.81
2018-06-18T03:21:55.647Z,16.86
2018-06-18T03:24:30.544Z,16.85
2018-06-18T03:27:05.221Z,16.87
2018-06-18T03:29:36.030Z,16.92
2018-06-18T03:32:11.391Z,16.94
2018-06-18T03:34:40.995Z,16.90
2018-06-18T03:37:13.698Z,16.95
2018-06-18T03:39:43.326Z,17.02
2018-06-18T03:42:12.982Z,17.01
2018-06-18T03:44:52.453Z,17.06
2018-06-18T03:47:25.811Z,17.06
2018-06-18T03:49:55.789Z,16.96
2018-06-18T03:52:25.578Z,16.99
2018-06-18T03:54:59.269Z,16.99
2018-06-18T03:57:28.889Z,17.05
2018-06-18T03:59:58.554Z,16.97
2018-06-18T04:02:40.032Z,17.00
2018-06-18T04:05:14.920Z,17.10
2018-06-18T04:07:51.697Z,16.99
2018-06-18T04:10:26.493Z,17.03
2018-06-18T04:12:56.142Z,16.90
2018-06-18T04:15:25.812Z,16.88
2018-06-18T04:17:55.475Z,16.99
2018-06-18T04:20:26.553Z,16.97
2018-06-18T04:22:56.293Z,17.03
2018-06-18T04:25:25.973Z,17.07
2018-06-18T04:27:55.461Z,17.22
2018-06-18T04:30:25.182Z,17.36
2018-06-18T04:32:54.952Z,17.40
2018-06-18T04:35:24.625Z,17.33
2018-06-18T04:37:54.257Z,17.23
2018-06-18T04:40:23.876Z,17.17
2018-06-18T04:42:58.810Z,17.27
2018-06-18T04:45:33.711Z,17.23
2018-06-18T04:48:08.611Z,17.13
2018-06-18T04:50:43.599Z,17.13
2018-06-18T04:53:13.233Z,17.19
2018-06-18T04:55:42.989Z,17.30
2018-06-18T04:58:12.617Z,17.30
2018-06-18T05:00:48.012Z,17.33
2018-06-18T05:03:17.717Z,17.45
2018-06-18T05:05:47.360Z,17.54
2018-06-18T05:09:12.350Z,17.54
2018-06-18T05:11:41.655Z,17.54
2018-06-18T05:14:11.300Z,17.71
2018-06-18T05:16:41.060Z,17.62
2018-06-18T05:19:10.695Z,17.84
2018-06-18T05:21:40.175Z,17.70
2018-06-18T05:24:09.735Z,17.89
2018-06-18T05:26:44.388Z,17.75
2018-06-18T05:29:14.210Z,17.70
2018-06-18T05:31:43.877Z,17.62
2018-06-18T05:34:15.623Z,17.70
2018-06-18T05:36:45.051Z,17.98
2018-06-18T05:39:14.678Z,18.20
2018-06-18T05:41:44.342Z,18.22
2018-06-18T05:44:13.965Z,18.31
2018-06-18T05:46:43.720Z,18.50
2018-06-18T05:49:13.391Z,18.41
2018-06-18T05:51:43.136Z,18.63
2018-06-18T05:54:12.862Z,18.80
2018-06-18T05:56:42.540Z,18.84
2018-06-18T05:59:12.168Z,18.56
2018-06-18T06:01:41.856Z,18.48
2018-06-18T06:04:11.244Z,18.54
2018-06-18T06:06:40.894Z,18.44
2018-06-18T06:09:12.674Z,18.26
2018-06-18T06:11:42.521Z,18.76
2018-06-18T06:14:12.245Z,18.68
2018-06-18T06:16:41.974Z,19.09
2018-06-18T06:19:11.696Z,19.61
2018-06-18T06:21:40.984Z,19.28
2018-06-18T06:24:10.657Z,19.76
2018-06-18T06:26:40.242Z,19.71
2018-06-18T06:29:09.873Z,20.30
2018-06-18T06:31:39.520Z,20.13
2018-06-18T06:34:09.312Z,20.34
2018-06-18T06:36:38.911Z,20.00
2018-06-18T06:39:10.858Z,20.10
2018-06-18T06:41:43.704Z,19.96
2018-06-18T06:44:13.441Z,20.03
2018-06-18T06:46:42.775Z,19.78
2018-06-18T06:49:12.521Z,19.90
2018-06-18T06:51:42.171Z,20.32
2018-06-18T06:54:11.789Z,20.59
2018-06-18T06:56:41.120Z,20.01
2018-06-18T06:59:10.777Z,20.26
2018-06-18T07:01:40.124Z,20.36
2018-06-18T07:04:10.101Z,20.26
2018-06-18T07:06:39.727Z,19.84
2018-06-18T07:09:11.065Z,19.96
2018-06-18T07:11:41.206Z,20.51
2018-06-18T07:14:10.885Z,20.37
2018-06-18T07:16:40.543Z,20.23
2018-06-18T07:19:10.216Z,20.49
2018-06-18T07:21:39.889Z,20.70
2018-06-18T07:24:09.776Z,20.02
2018-06-18T07:26:39.466Z,19.99
2018-06-18T07:29:09.141Z,19.86
2018-06-18T07:31:38.749Z,19.48
2018-06-18T07:34:08.415Z,19.59
2018-06-18T07:36:38.018Z,19.51
2018-06-18T07:39:08.471Z,19.35
2018-06-18T07:41:37.829Z,19.56
2018-06-18T07:44:07.649Z,19.49
2018-06-18T07:46:37.281Z,19.83
2018-06-18T07:49:07.000Z,19.87
2018-06-18T07:51:36.644Z,19.55
2018-06-18T07:54:06.158Z,19.54
2018-06-18T07:56:35.783Z,19.21
2018-06-18T07:59:05.439Z,19.18
2018-06-18T08:01:35.115Z,18.98
2018-06-18T08:04:04.789Z,18.93
2018-06-18T08:06:34.468Z,19.00
2018-06-18T08:09:06.300Z,19.21
2018-06-18T08:11:36.002Z,19.71
2018-06-18T08:14:06.053Z,19.87
2018-06-18T08:16:35.844Z,20.22
2018-06-18T08:19:05.803Z,20.58
2018-06-18T08:21:35.767Z,20.83
2018-06-18T08:24:05.617Z,20.78
2018-06-18T08:26:35.242Z,21.09
2018-06-18T08:29:04.944Z,20.79
2018-06-18T08:31:34.701Z,21.22
2018-06-18T08:34:04.122Z,21.42
2018-06-18T08:36:33.745Z,20.81
2018-06-18T08:39:04.014Z,21.23
2018-06-18T08:41:33.644Z,21.22
2018-06-18T08:44:03.507Z,21.46
2018-06-18T08:46:33.186Z,21.33
2018-06-18T08:49:06.033Z,21.80
2018-06-18T08:51:40.923Z,21.81
2018-06-18T08:54:15.817Z,21.78
2018-06-18T08:56:50.651Z,22.81
2018-06-18T08:59:25.459Z,22.59
2018-06-18T09:01:55.265Z,23.52
2018-06-18T09:04:30.161Z,23.12
2018-06-18T09:07:07.016Z,23.54
2018-06-18T09:09:36.316Z,23.78
2018-06-18T09:12:05.660Z,23.57
2018-06-18T09:14:35.338Z,23.43
2018-06-18T09:17:05.171Z,24.25
2018-06-18T09:19:34.866Z,24.54
2018-06-18T09:22:04.517Z,23.42
2018-06-18T09:24:35.009Z,23.73
2018-06-18T09:27:09.839Z,23.68
2018-06-18T09:29:39.192Z,22.87
2018-06-18T09:32:14.178Z,22.19
2018-06-18T09:34:44.324Z,22.43
2018-06-18T09:37:13.997Z,22.03
2018-06-18T09:39:43.652Z,21.50
2018-06-18T09:42:13.368Z,21.52
2018-06-18T09:44:42.998Z,21.25
2018-06-18T09:47:12.713Z,21.54
2018-06-18T09:49:47.452Z,21.58
2018-06-18T09:52:22.073Z,21.73
2018-06-18T09:57:00.230Z,21.97
2018-06-18T09:59:43.657Z,21.89
2018-06-18T10:02:13.372Z,22.33
2018-06-18T10:04:43.034Z,21.95
2018-06-18T10:07:12.768Z,21.27
2018-06-18T10:09:42.485Z,21.52
2018-06-18T10:12:12.173Z,21.32
2018-06-18T10:14:41.890Z,21.70
2018-06-18T10:17:11.528Z,22.09
2018-06-18T10:19:41.285Z,22.18
2018-06-18T10:22:10.972Z,22.77
2018-06-18T10:24:40.672Z,22.78
2018-06-18T10:27:10.014Z,22.35
2018-06-18T10:29:39.670Z,22.95
2018-06-18T10:33:12.279Z,23.49
2018-06-18T10:35:46.713Z,24.28
2018-06-18T10:38:21.486Z,24.36
2018-06-18T10:40:56.155Z,24.56
2018-06-18T10:43:29.845Z,25.58
2018-06-18T10:45:59.599Z,24.49
2018-06-18T10:48:29.254Z,24.36
2018-06-18T10:50:59.004Z,23.65
2018-06-18T10:53:28.680Z,23.35
2018-06-18T10:55:58.362Z,23.31
2018-06-18T10:58:27.963Z,23.59
2018-06-18T11:01:12.703Z,23.30
2018-06-18T11:03:42.450Z,22.99
2018-06-18T11:06:17.417Z,22.48
2018-06-18T11:08:47.018Z,22.48
2018-06-18T11:11:16.708Z,23.04
2018-06-18T11:13:46.357Z,22.94
2018-06-18T11:16:16.180Z,22.77
2018-06-18T11:18:50.785Z,22.93
2018-06-18T11:21:25.556Z,22.69
2018-06-18T11:24:00.387Z,22.57
2018-06-18T11:26:35.003Z,22.76
2018-06-18T11:29:04.755Z,22.87
2018-06-18T11:31:34.420Z,22.97
2018-06-18T11:34:04.149Z,23.05
2018-06-18T11:36:33.884Z,23.25
2018-06-18T11:39:04.676Z,23.07
2018-06-18T11:41:34.412Z,22.91
2018-06-18T11:44:04.499Z,23.00
2018-06-18T11:46:34.246Z,22.99
2018-06-18T11:49:03.594Z,23.07
2018-06-18T11:51:33.337Z,23.48
2018-06-18T11:54:03.079Z,23.37
2018-06-18T11:56:33.238Z,23.38
2018-06-18T11:59:07.997Z,23.72
2018-06-18T12:01:42.771Z,23.27
2018-06-18T12:04:17.521Z,23.14
2018-06-18T12:06:52.463Z,23.26
2018-06-18T12:09:27.310Z,23.39
2018-06-18T12:11:57.413Z,23.14
2018-06-18T12:14:27.073Z,23.37
2018-06-18T12:16:56.807Z,23.12
2018-06-18T12:19:26.498Z,23.14
2018-06-18T12:21:56.152Z,22.96
2018-06-18T12:24:25.812Z,22.53
2018-06-18T12:26:55.518Z,22.81
2018-06-18T12:29:25.197Z,22.79
2018-06-18T12:31:54.876Z,22.76
2018-06-18T12:34:24.283Z,23.09
2018-06-18T12:39:17.503Z,23.21
2018-06-18T12:41:58.801Z,23.63
2018-06-18T12:44:32.686Z,23.51
2018-06-18T12:47:07.390Z,22.99
2018-06-18T12:49:42.114Z,23.31
2018-06-18T12:52:16.506Z,22.72
2018-06-18T12:54:51.201Z,22.53
2018-06-18T12:57:20.933Z,22.48
2018-06-18T12:59:50.640Z,22.46
2018-06-18T13:02:35.341Z,22.77
2018-06-18T13:05:05.126Z,22.98
2018-06-18T13:07:34.870Z,24.04
2018-06-18T13:10:04.264Z,24.90
2018-06-18T13:12:33.866Z,24.64
2018-06-18T13:15:03.577Z,25.62
2018-06-18T13:17:33.328Z,26.42
2018-06-18T13:20:02.678Z,25.48
2018-06-18T13:22:32.339Z,25.49
2018-06-18T13:25:01.724Z,24.83
2018-06-18T13:27:36.525Z,24.07
2018-06-18T13:30:07.357Z,23.54
2018-06-18T13:32:36.999Z,23.65
2018-06-18T13:35:06.916Z,23.62
2018-06-18T13:37:41.489Z,23.71
2018-06-18T13:40:16.373Z,23.94
2018-06-18T13:42:51.190Z,23.86
2018-06-18T13:45:25.931Z,23.42
2018-06-18T13:48:00.872Z,23.47
2018-06-18T13:50:30.537Z,23.12
2018-06-18T13:53:00.174Z,23.23
2018-06-18T13:55:29.790Z,23.35
2018-06-18T13:57:59.602Z,23.64
2018-06-18T14:00:29.442Z,23.71
2018-06-18T14:02:58.784Z,23.66
2018-06-18T14:05:28.522Z,23.58
2018-06-18T14:07:58.249Z,23.48
2018-06-18T14:10:27.938Z,23.03
2018-06-18T14:12:57.613Z,22.93
2018-06-18T14:15:27.339Z,22.64
2018-06-18T14:17:57.109Z,22.87
2018-06-18T14:20:27.717Z,22.76
2018-06-18T14:22:57.368Z,23.12
2018-06-18T14:25:27.079Z,22.83
2018-06-18T14:27:56.758Z,23.43
2018-06-18T14:30:31.671Z,23.25
2018-06-18T14:33:06.380Z,23.48
2018-06-18T14:35:41.266Z,23.08
2018-06-18T14:38:16.165Z,23.65
2018-06-18T14:40:45.812Z,23.12
2018-06-18T14:43:15.075Z,23.40
2018-06-18T14:45:44.759Z,23.29
2018-06-18T14:48:14.388Z,23.70
2018-06-18T14:50:44.070Z,23.77
2018-06-18T14:53:13.773Z,23.74
2018-06-18T14:55:45.991Z,23.85
2018-06-18T14:58:15.665Z,23.97
2018-06-18T15:00:45.344Z,24.32
2018-06-18T15:03:15.030Z,23.84
2018-06-18T15:05:44.852Z,24.19
2018-06-18T15:08:14.553Z,23.79
2018-06-18T15:10:49.308Z,23.84
2018-06-18T15:13:18.997Z,24.07
2018-06-18T15:15:53.795Z,23.96
2018-06-18T15:18:23.188Z,23.89
2018-06-18T15:20:56.256Z,24.35
2018-06-18T15:23:25.960Z,24.45
2018-06-18T15:25:55.648Z,24.49
2018-06-18T15:28:25.341Z,24.42
2018-06-18T15:30:54.997Z,24.28
2018-06-18T15:33:24.633Z,24.45
2018-06-18T15:35:54.553Z,24.19
2018-06-18T15:38:24.333Z,23.95
2018-06-18T15:40:53.968Z,24.06
2018-06-18T15:43:23.621Z,24.27
2018-06-18T15:45:53.277Z,23.93
2018-06-18T15:48:22.974Z,23.76
2018-06-18T15:50:52.606Z,23.74
2018-06-18T15:53:22.363Z,24.00
2018-06-18T15:55:52.029Z,23.41
2018-06-18T15:58:21.667Z,23.62
2018-06-18T16:00:51.456Z,23.69
2018-06-18T16:03:21.184Z,24.27
2018-06-18T16:05:50.910Z,24.25
2018-06-18T16:08:20.570Z,24.16
2018-06-18T16:10:50.288Z,24.29
2018-06-18T16:13:19.984Z,24.17
2018-06-18T16:15:49.299Z,24.23
2018-06-18T16:18:18.990Z,24.62
2018-06-18T16:20:48.738Z,24.46
2018-06-18T16:23:18.424Z,24.54
2018-06-18T16:25:47.789Z,24.20
2018-06-18T16:28:17.552Z,24.57
2018-06-18T16:30:47.223Z,24.32
2018-06-18T16:33:17.031Z,23.91
2018-06-18T16:35:46.760Z,23.99
2018-06-18T16:38:16.433Z,24.13
2018-06-18T16:40:46.164Z,23.90
2018-06-18T16:43:15.833Z,24.01
2018-06-18T16:45:45.509Z,24.14
2018-06-18T16:48:15.272Z,24.24
2018-06-18T16:50:44.980Z,24.26
2018-06-18T16:53:14.653Z,24.25
2018-06-18T16:55:44.384Z,24.16
2018-06-18T16:58:14.037Z,23.78
2018-06-18T17:00:43.821Z,23.59
2018-06-18T17:03:13.552Z,23.48
2018-06-18T17:05:43.225Z,23.84
2018-06-18T17:08:12.917Z,23.78
2018-06-18T17:10:42.723Z,24.11
2018-06-18T17:13:12.386Z,24.15
2018-06-18T17:15:42.062Z,23.80
2018-06-18T17:18:11.765Z,23.60
2018-06-18T17:20:41.637Z,23.60
2018-06-18T17:23:11.011Z,23.27
2018-06-18T17:25:40.773Z,23.18
2018-06-18T17:28:10.598Z,23.27
2018-06-18T17:30:40.335Z,23.36
2018-06-18T17:33:10.249Z,23.61
2018-06-18T17:35:39.942Z,23.63
2018-06-18T17:38:09.748Z,23.52
2018-06-18T17:40:39.518Z,23.12
2018-06-18T17:43:09.246Z,23.17
2018-06-18T17:45:39.018Z,23.08
2018-06-18T17:48:08.723Z,22.99
2018-06-18T17:50:38.413Z,23.04
2018-06-18T17:53:08.109Z,22.77
2018-06-18T17:55:37.497Z,22.86
2018-06-18T17:58:07.495Z,22.87
2018-06-18T18:00:37.414Z,22.86
2018-06-18T18:03:07.235Z,23.00
2018-06-18T18:05:36.950Z,23.17
2018-06-18T18:08:06.877Z,23.12
2018-06-18T18:10:36.611Z,22.90
2018-06-18T18:13:06.267Z,22.96
2018-06-18T18:15:35.789Z,23.28
2018-06-18T18:18:05.736Z,23.38
2018-06-18T18:20:35.413Z,23.08
2018-06-18T18:23:05.162Z,22.92
2018-06-18T18:25:34.836Z,22.87
2018-06-18T18:28:04.524Z,22.78
2018-06-18T18:30:34.243Z,22.59
2018-06-18T18:33:04.024Z,22.43
2018-06-18T18:35:34.352Z,22.31
2018-06-18T18:38:04.639Z,22.31
2018-06-18T18:40:34.494Z,22.22
2018-06-18T18:43:04.273Z,22.15
2018-06-18T18:45:33.941Z,22.16
2018-06-18T18:48:03.640Z,22.22
2018-06-18T18:50:33.065Z,22.27
2018-06-18T18:53:02.725Z,22.29
2018-06-18T18:55:51.584Z,22.21
2018-06-18T18:59:35.568Z,22.09
2018-06-18T19:02:05.926Z,21.78
2018-06-18T19:05:01.134Z,21.73
2018-06-18T19:07:36.726Z,21.73
2018-06-18T19:10:16.761Z,21.68
2018-06-18T19:12:46.544Z,21.54
2018-06-18T19:15:16.233Z,21.29
2018-06-18T19:17:46.068Z,21.25
2018-06-18T19:20:23.574Z,21.17
2018-06-18T19:22:52.896Z,21.20
2018-06-18T19:25:22.689Z,21.04
2018-06-18T19:27:52.077Z,20.99
2018-06-18T19:30:21.830Z,20.88
2018-06-18T19:32:53.920Z,20.61
2018-06-18T19:35:23.714Z,20.45
2018-06-18T19:37:54.565Z,20.31
2018-06-18T19:40:24.452Z,20.34
2018-06-18T19:42:53.854Z,20.35
2018-06-18T19:45:24.606Z,20.36
2018-06-18T19:47:59.802Z,20.38
2018-06-18T19:50:29.514Z,20.35
2018-06-18T19:52:59.430Z,20.38
2018-06-18T19:55:32.334Z,20.20
2018-06-18T19:58:02.274Z,19.96
2018-06-18T20:00:38.050Z,19.81
2018-06-18T20:03:07.835Z,19.69
2018-06-18T20:05:37.281Z,19.60
2018-06-18T20:08:12.965Z,19.45
2018-06-18T20:10:42.741Z,19.43
2018-06-18T20:13:12.457Z,19.44
2018-06-18T20:15:42.213Z,19.51
2018-06-18T20:18:12.054Z,19.48
2018-06-18T20:20:41.398Z,19.31
2018-06-18T20:23:15.405Z,19.31
2018-06-18T20:25:50.806Z,19.37
2018-06-18T20:28:20.667Z,19.33
2018-06-18T20:30:50.373Z,19.17
2018-06-18T20:33:24.540Z,19.12
2018-06-18T20:35:59.348Z,19.20
2018-06-18T20:38:29.133Z,19.46
2018-06-18T20:40:58.952Z,19.41
2018-06-18T20:43:34.971Z,19.37
2018-06-18T20:46:04.713Z,19.34
2018-06-18T20:48:34.376Z,19.20
2018-06-18T20:51:04.157Z,19.14
2018-06-18T20:53:33.872Z,18.94
2018-06-18T20:56:03.532Z,18.79
2018-06-18T20:58:33.245Z,18.95
2018-06-18T21:01:02.939Z,18.88
2018-06-18T21:03:32.636Z,18.90
2018-06-18T21:06:02.526Z,18.99
2018-06-18T21:08:32.189Z,19.08
2018-06-18T21:11:01.970Z,19.11
2018-06-18T21:13:31.585Z,19.17
2018-06-18T21:16:01.312Z,18.98
2018-06-18T21:18:31.055Z,18.93
2018-06-18T21:21:00.769Z,18.86
2018-06-18T21:23:30.500Z,18.64
2018-06-18T21:25:59.956Z,18.47
2018-06-18T21:28:29.566Z,18.68
2018-06-18T21:30:59.260Z,18.68
2018-06-18T21:33:29.157Z,18.76
2018-06-18T21:35:58.841Z,18.66
2018-06-18T21:38:28.486Z,18.59
2018-06-18T21:40:58.418Z,18.83
2018-06-18T21:43:28.532Z,18.74
2018-06-18T21:45:58.306Z,18.62
2018-06-18T21:48:27.994Z,18.78
2018-06-18T21:50:57.653Z,18.68
2018-06-18T21:53:26.975Z,18.61
2018-06-18T21:55:56.653Z,18.67
2018-06-18T21:58:26.588Z,18.62
2018-06-18T22:00:55.971Z,18.64
2018-06-18T22:03:25.705Z,18.58
2018-06-18T22:05:55.083Z,18.68
2018-06-18T22:08:27.050Z,18.63
2018-06-18T22:10:56.960Z,18.54
2018-06-18T22:13:26.959Z,18.56
2018-06-18T22:15:56.682Z,18.52
2018-06-18T22:18:26.337Z,18.52
2018-06-18T22:20:56.201Z,18.65
2018-06-18T22:23:25.929Z,18.68
2018-06-18T22:25:55.638Z,18.78
2018-06-18T22:28:34.148Z,18.80
2018-06-18T22:31:04.564Z,19.05
2018-06-18T22:33:34.674Z,18.94
2018-06-18T22:36:04.450Z,18.88
2018-06-18T22:38:34.292Z,18.93
2018-06-18T22:41:03.981Z,18.85
2018-06-18T22:43:33.707Z,18.65
2018-06-18T22:46:03.081Z,18.54
2018-06-18T22:48:32.809Z,18.46
2018-06-18T22:51:02.626Z,18.24
2018-06-18T22:53:32.337Z,18.13
2018-06-18T22:56:02.105Z,18.03
2018-06-18T22:58:31.824Z,17.89
2018-06-18T23:01:02.310Z,17.86
2018-06-18T23:03:31.998Z,17.95
2018-06-18T23:06:01.757Z,17.62
2018-06-18T23:08:31.476Z,17.67
2018-06-18T23:11:01.202Z,17.52
2018-06-18T23:13:34.181Z,17.31
2018-06-18T23:16:05.965Z,17.20
2018-06-18T23:18:35.752Z,17.07
2018-06-18T23:21:05.533Z,16.93
2018-06-18T23:23:35.353Z,16.92
2018-06-18T23:26:05.204Z,16.77
2018-06-18T23:28:50.321Z,16.64
2018-06-18T23:31:19.964Z,16.51
2018-06-18T23:33:49.278Z,16.46
2018-06-18T23:36:19.093Z,16.42
2018-06-18T23:38:49.069Z,16.33
2018-06-18T23:41:19.877Z,16.22
2018-06-18T23:43:49.619Z,16.13
2018-06-18T23:46:19.341Z,16.11
2018-06-18T23:48:49.152Z,16.09
2018-06-18T23:51:18.866Z,16.00
2018-06-18T23:53:48.549Z,15.87
2018-06-18T23:56:18.204Z,15.82
2018-06-18T23:58:47.930Z,15.80
